sensor_id;sensor_type;location;lat;lon;timestamp;P1;durP1;ratioP1;P2;durP2;ratioP2
68168;SDS011;54981;50.206;15.978;2023-06-10T00:00:57;18.50;;;16.70;;
68168;SDS011;54981;50.206;15.978;2023-06-10T00:03:27;18.30;;;16.55;;
68168;SDS011;54981;50.206;15.978;2023-06-10T00:05:58;18.08;;;16.42;;
68168;SDS011;54981;50.206;15.978;2023-06-10T00:08:28;20.38;;;18.58;;
68168;SDS011;54981;50.206;15.978;2023-06-10T00:11:01;20.33;;;16.55;;
68168;SDS011;54981;50.206;15.978;2023-06-10T00:13:31;20.30;;;18.30;;
68168;SDS011;54981;50.206;15.978;2023-06-10T00:16:02;18.45;;;16.77;;
68168;SDS011;54981;50.206;15.978;2023-06-10T00:18:33;19.25;;;17.63;;
68168;SDS011;54981;50.206;15.978;2023-06-10T00:21:06;19.35;;;17.48;;
68168;SDS011;54981;50.206;15.978;2023-06-10T00:23:37;18.58;;;16.98;;
68168;SDS011;54981;50.206;15.978;2023-06-10T00:26:08;19.48;;;17.73;;
68168;SDS011;54981;50.206;15.978;2023-06-10T00:28:38;19.10;;;17.13;;
68168;SDS011;54981;50.206;15.978;2023-06-10T00:31:08;19.58;;;17.75;;
68168;SDS011;54981;50.206;15.978;2023-06-10T00:33:39;17.73;;;15.93;;
68168;SDS011;54981;50.206;15.978;2023-06-10T00:36:09;21.67;;;15.52;;
68168;SDS011;54981;50.206;15.978;2023-06-10T00:38:40;21.35;;;15.85;;
68168;SDS011;54981;50.206;15.978;2023-06-10T00:41:11;18.73;;;16.80;;
68168;SDS011;54981;50.206;15.978;2023-06-10T00:43:41;19.27;;;17.33;;
68168;SDS011;54981;50.206;15.978;2023-06-10T00:46:11;19.60;;;17.70;;
68168;SDS011;54981;50.206;15.978;2023-06-10T00:48:43;19.23;;;17.05;;
68168;SDS011;54981;50.206;15.978;2023-06-10T00:51:15;21.13;;;17.95;;
68168;SDS011;54981;50.206;15.978;2023-06-10T00:53:47;19.27;;;16.45;;
68168;SDS011;54981;50.206;15.978;2023-06-10T00:56:20;18.05;;;16.08;;
68168;SDS011;54981;50.206;15.978;2023-06-10T00:58:51;20.45;;;16.35;;
68168;SDS011;54981;50.206;15.978;2023-06-10T01:01:21;19.75;;;15.60;;
68168;SDS011;54981;50.206;15.978;2023-06-10T01:03:52;20.15;;;16.88;;
68168;SDS011;54981;50.206;15.978;2023-06-10T01:11:57;20.17;;;17.77;;
68168;SDS011;54981;50.206;15.978;2023-06-10T01:14:32;20.05;;;16.50;;
68168;SDS011;54981;50.206;15.978;2023-06-10T01:17:02;20.17;;;17.75;;
68168;SDS011;54981;50.206;15.978;2023-06-10T01:19:34;17.92;;;16.23;;
68168;SDS011;54981;50.206;15.978;2023-06-10T01:22:06;19.15;;;17.25;;
68168;SDS011;54981;50.206;15.978;2023-06-10T01:24:37;19.63;;;17.85;;
68168;SDS011;54981;50.206;15.978;2023-06-10T01:27:12;22.00;;;20.03;;
68168;SDS011;54981;50.206;15.978;2023-06-10T01:29:46;21.25;;;19.35;;
68168;SDS011;54981;50.206;15.978;2023-06-10T01:32:26;20.65;;;18.95;;
68168;SDS011;54981;50.206;15.978;2023-06-10T01:35:02;21.73;;;19.65;;
68168;SDS011;54981;50.206;15.978;2023-06-10T01:37:35;22.70;;;20.38;;
68168;SDS011;54981;50.206;15.978;2023-06-10T01:40:08;20.15;;;18.25;;
68168;SDS011;54981;50.206;15.978;2023-06-10T01:42:40;19.10;;;17.30;;
68168;SDS011;54981;50.206;15.978;2023-06-10T01:45:10;21.30;;;18.80;;
68168;SDS011;54981;50.206;15.978;2023-06-10T01:47:41;20.48;;;18.20;;
68168;SDS011;54981;50.206;15.978;2023-06-10T01:50:11;19.10;;;17.30;;
68168;SDS011;54981;50.206;15.978;2023-06-10T01:52:42;20.42;;;18.48;;
68168;SDS011;54981;50.206;15.978;2023-06-10T01:55:12;21.33;;;19.33;;
68168;SDS011;54981;50.206;15.978;2023-06-10T01:57:42;19.73;;;17.33;;
68168;SDS011;54981;50.206;15.978;2023-06-10T02:00:13;19.95;;;18.23;;
68168;SDS011;54981;50.206;15.978;2023-06-10T02:02:44;19.48;;;17.58;;
68168;SDS011;54981;50.206;15.978;2023-06-10T02:05:14;19.77;;;17.85;;
68168;SDS011;54981;50.206;15.978;2023-06-10T02:07:45;20.05;;;18.35;;
68168;SDS011;54981;50.206;15.978;2023-06-10T02:10:15;19.80;;;18.20;;
68168;SDS011;54981;50.206;15.978;2023-06-10T02:12:45;20.48;;;18.58;;
68168;SDS011;54981;50.206;15.978;2023-06-10T02:15:16;22.63;;;20.63;;
68168;SDS011;54981;50.206;15.978;2023-06-10T02:17:46;22.80;;;20.58;;
68168;SDS011;54981;50.206;15.978;2023-06-10T02:20:18;22.73;;;20.63;;
68168;SDS011;54981;50.206;15.978;2023-06-10T02:22:49;21.55;;;19.58;;
68168;SDS011;54981;50.206;15.978;2023-06-10T02:25:19;20.48;;;18.77;;
68168;SDS011;54981;50.206;15.978;2023-06-10T02:27:50;19.73;;;17.80;;
68168;SDS011;54981;50.206;15.978;2023-06-10T02:30:20;21.92;;;19.83;;
68168;SDS011;54981;50.206;15.978;2023-06-10T02:32:51;21.10;;;18.98;;
68168;SDS011;54981;50.206;15.978;2023-06-10T02:35:22;20.60;;;18.88;;
68168;SDS011;54981;50.206;15.978;2023-06-10T02:37:54;21.27;;;19.35;;
68168;SDS011;54981;50.206;15.978;2023-06-10T02:40:24;20.10;;;18.27;;
68168;SDS011;54981;50.206;15.978;2023-06-10T02:42:54;20.83;;;18.02;;
68168;SDS011;54981;50.206;15.978;2023-06-10T02:45:25;20.80;;;18.95;;
68168;SDS011;54981;50.206;15.978;2023-06-10T02:47:55;22.00;;;19.75;;
68168;SDS011;54981;50.206;15.978;2023-06-10T02:50:26;20.60;;;18.75;;
68168;SDS011;54981;50.206;15.978;2023-06-10T02:52:56;19.25;;;17.40;;
68168;SDS011;54981;50.206;15.978;2023-06-10T02:55:26;21.83;;;19.92;;
68168;SDS011;54981;50.206;15.978;2023-06-10T02:57:57;22.08;;;20.13;;
68168;SDS011;54981;50.206;15.978;2023-06-10T03:00:29;21.65;;;19.42;;
68168;SDS011;54981;50.206;15.978;2023-06-10T03:02:59;20.98;;;19.05;;
68168;SDS011;54981;50.206;15.978;2023-06-10T03:05:33;20.98;;;19.25;;
68168;SDS011;54981;50.206;15.978;2023-06-10T03:08:03;20.88;;;19.08;;
68168;SDS011;54981;50.206;15.978;2023-06-10T03:10:34;20.45;;;18.75;;
68168;SDS011;54981;50.206;15.978;2023-06-10T03:13:05;20.35;;;18.55;;
68168;SDS011;54981;50.206;15.978;2023-06-10T03:15:35;21.13;;;19.33;;
68168;SDS011;54981;50.206;15.978;2023-06-10T03:18:06;21.20;;;19.13;;
68168;SDS011;54981;50.206;15.978;2023-06-10T03:20:37;19.15;;;17.52;;
68168;SDS011;54981;50.206;15.978;2023-06-10T03:23:09;18.00;;;16.50;;
68168;SDS011;54981;50.206;15.978;2023-06-10T03:25:40;19.27;;;17.50;;
68168;SDS011;54981;50.206;15.978;2023-06-10T03:28:10;19.23;;;17.52;;
68168;SDS011;54981;50.206;15.978;2023-06-10T03:30:41;18.42;;;16.90;;
68168;SDS011;54981;50.206;15.978;2023-06-10T03:33:11;18.77;;;17.15;;
68168;SDS011;54981;50.206;15.978;2023-06-10T03:35:42;18.63;;;17.05;;
68168;SDS011;54981;50.206;15.978;2023-06-10T03:38:12;17.38;;;15.98;;
68168;SDS011;54981;50.206;15.978;2023-06-10T03:40:43;19.05;;;17.45;;
68168;SDS011;54981;50.206;15.978;2023-06-10T03:43:13;18.92;;;17.42;;
68168;SDS011;54981;50.206;15.978;2023-06-10T03:45:44;18.98;;;17.48;;
68168;SDS011;54981;50.206;15.978;2023-06-10T03:48:15;18.45;;;16.85;;
68168;SDS011;54981;50.206;15.978;2023-06-10T03:50:45;18.13;;;16.52;;
68168;SDS011;54981;50.206;15.978;2023-06-10T03:53:17;17.98;;;16.38;;
68168;SDS011;54981;50.206;15.978;2023-06-10T03:55:48;18.17;;;16.67;;
68168;SDS011;54981;50.206;15.978;2023-06-10T03:58:18;18.25;;;16.65;;
68168;SDS011;54981;50.206;15.978;2023-06-10T04:00:49;17.67;;;16.08;;
68168;SDS011;54981;50.206;15.978;2023-06-10T04:03:19;18.95;;;17.42;;
68168;SDS011;54981;50.206;15.978;2023-06-10T04:05:51;17.38;;;15.80;;
68168;SDS011;54981;50.206;15.978;2023-06-10T04:08:22;18.67;;;16.98;;
68168;SDS011;54981;50.206;15.978;2023-06-10T04:10:52;20.02;;;18.30;;
68168;SDS011;54981;50.206;15.978;2023-06-10T04:13:23;19.08;;;17.45;;
68168;SDS011;54981;50.206;15.978;2023-06-10T04:15:53;18.95;;;17.23;;
68168;SDS011;54981;50.206;15.978;2023-06-10T04:18:24;23.73;;;21.20;;
68168;SDS011;54981;50.206;15.978;2023-06-10T04:20:55;20.35;;;18.27;;
68168;SDS011;54981;50.206;15.978;2023-06-10T04:23:25;23.15;;;21.02;;
68168;SDS011;54981;50.206;15.978;2023-06-10T04:25:56;24.40;;;22.15;;
68168;SDS011;54981;50.206;15.978;2023-06-10T04:28:26;24.63;;;22.38;;
68168;SDS011;54981;50.206;15.978;2023-06-10T04:30:57;25.63;;;23.30;;
68168;SDS011;54981;50.206;15.978;2023-06-10T04:33:27;25.40;;;23.38;;
68168;SDS011;54981;50.206;15.978;2023-06-10T04:35:58;25.05;;;22.77;;
68168;SDS011;54981;50.206;15.978;2023-06-10T04:38:28;24.85;;;22.73;;
68168;SDS011;54981;50.206;15.978;2023-06-10T04:41:00;25.77;;;23.38;;
68168;SDS011;54981;50.206;15.978;2023-06-10T04:43:31;28.75;;;26.35;;
68168;SDS011;54981;50.206;15.978;2023-06-10T04:46:01;29.80;;;27.08;;
68168;SDS011;54981;50.206;15.978;2023-06-10T04:48:31;31.15;;;28.02;;
68168;SDS011;54981;50.206;15.978;2023-06-10T04:51:05;29.77;;;27.08;;
68168;SDS011;54981;50.206;15.978;2023-06-10T04:53:35;30.13;;;27.27;;
68168;SDS011;54981;50.206;15.978;2023-06-10T04:56:07;34.08;;;30.90;;
68168;SDS011;54981;50.206;15.978;2023-06-10T04:58:37;28.50;;;25.92;;
68168;SDS011;54981;50.206;15.978;2023-06-10T05:01:08;29.55;;;26.73;;
68168;SDS011;54981;50.206;15.978;2023-06-10T05:03:38;31.25;;;28.70;;
68168;SDS011;54981;50.206;15.978;2023-06-10T05:06:08;31.02;;;28.23;;
68168;SDS011;54981;50.206;15.978;2023-06-10T05:08:39;30.13;;;27.20;;
68168;SDS011;54981;50.206;15.978;2023-06-10T05:11:10;32.35;;;29.20;;
68168;SDS011;54981;50.206;15.978;2023-06-10T05:13:41;31.90;;;28.98;;
68168;SDS011;54981;50.206;15.978;2023-06-10T05:16:12;30.50;;;27.83;;
68168;SDS011;54981;50.206;15.978;2023-06-10T05:18:43;29.15;;;26.65;;
68168;SDS011;54981;50.206;15.978;2023-06-10T05:21:13;28.55;;;26.08;;
68168;SDS011;54981;50.206;15.978;2023-06-10T05:23:43;30.40;;;27.80;;
68168;SDS011;54981;50.206;15.978;2023-06-10T05:26:14;31.58;;;28.73;;
68168;SDS011;54981;50.206;15.978;2023-06-10T05:28:44;32.17;;;29.33;;
68168;SDS011;54981;50.206;15.978;2023-06-10T05:31:15;27.13;;;24.85;;
68168;SDS011;54981;50.206;15.978;2023-06-10T05:33:45;35.97;;;32.75;;
68168;SDS011;54981;50.206;15.978;2023-06-10T05:36:16;32.65;;;29.75;;
68168;SDS011;54981;50.206;15.978;2023-06-10T05:38:46;30.15;;;27.65;;
68168;SDS011;54981;50.206;15.978;2023-06-10T05:41:16;30.52;;;27.73;;
68168;SDS011;54981;50.206;15.978;2023-06-10T05:43:47;32.10;;;29.27;;
68168;SDS011;54981;50.206;15.978;2023-06-10T05:46:17;33.88;;;30.70;;
68168;SDS011;54981;50.206;15.978;2023-06-10T05:48:48;34.55;;;31.48;;
68168;SDS011;54981;50.206;15.978;2023-06-10T05:51:18;32.67;;;29.85;;
68168;SDS011;54981;50.206;15.978;2023-06-10T05:53:48;33.83;;;30.92;;
68168;SDS011;54981;50.206;15.978;2023-06-10T05:56:19;30.42;;;27.83;;
68168;SDS011;54981;50.206;15.978;2023-06-10T05:58:51;31.50;;;28.75;;
68168;SDS011;54981;50.206;15.978;2023-06-10T06:01:24;33.05;;;30.25;;
68168;SDS011;54981;50.206;15.978;2023-06-10T06:03:59;34.38;;;31.27;;
68168;SDS011;54981;50.206;15.978;2023-06-10T06:06:30;32.50;;;29.67;;
68168;SDS011;54981;50.206;15.978;2023-06-10T06:09:00;30.75;;;28.25;;
68168;SDS011;54981;50.206;15.978;2023-06-10T06:11:33;30.65;;;27.88;;
68168;SDS011;54981;50.206;15.978;2023-06-10T06:14:06;28.52;;;26.08;;
68168;SDS011;54981;50.206;15.978;2023-06-10T06:16:36;25.35;;;23.20;;
68168;SDS011;54981;50.206;15.978;2023-06-10T06:19:07;23.95;;;21.90;;
68168;SDS011;54981;50.206;15.978;2023-06-10T06:21:39;28.25;;;25.52;;
68168;SDS011;54981;50.206;15.978;2023-06-10T06:24:09;28.95;;;26.50;;
68168;SDS011;54981;50.206;15.978;2023-06-10T06:26:40;31.45;;;28.67;;
68168;SDS011;54981;50.206;15.978;2023-06-10T06:29:10;28.20;;;25.75;;
68168;SDS011;54981;50.206;15.978;2023-06-10T06:31:40;24.42;;;22.13;;
68168;SDS011;54981;50.206;15.978;2023-06-10T06:34:11;27.10;;;24.65;;
68168;SDS011;54981;50.206;15.978;2023-06-10T06:36:41;26.10;;;23.90;;
68168;SDS011;54981;50.206;15.978;2023-06-10T06:39:12;27.33;;;25.13;;
68168;SDS011;54981;50.206;15.978;2023-06-10T06:41:42;27.05;;;24.65;;
68168;SDS011;54981;50.206;15.978;2023-06-10T06:44:13;26.33;;;24.05;;
68168;SDS011;54981;50.206;15.978;2023-06-10T06:46:43;27.83;;;25.30;;
68168;SDS011;54981;50.206;15.978;2023-06-10T06:49:13;26.10;;;23.85;;
68168;SDS011;54981;50.206;15.978;2023-06-10T06:51:44;27.75;;;25.20;;
68168;SDS011;54981;50.206;15.978;2023-06-10T06:54:14;27.02;;;24.83;;
68168;SDS011;54981;50.206;15.978;2023-06-10T06:56:45;27.48;;;25.05;;
68168;SDS011;54981;50.206;15.978;2023-06-10T06:59:15;26.20;;;23.88;;
68168;SDS011;54981;50.206;15.978;2023-06-10T07:01:47;26.17;;;23.88;;
68168;SDS011;54981;50.206;15.978;2023-06-10T07:04:17;29.13;;;26.67;;
68168;SDS011;54981;50.206;15.978;2023-06-10T07:06:49;28.48;;;25.95;;
68168;SDS011;54981;50.206;15.978;2023-06-10T07:09:20;28.42;;;25.80;;
68168;SDS011;54981;50.206;15.978;2023-06-10T07:11:50;28.77;;;26.27;;
68168;SDS011;54981;50.206;15.978;2023-06-10T07:14:21;29.67;;;27.25;;
68168;SDS011;54981;50.206;15.978;2023-06-10T07:16:51;28.17;;;25.65;;
68168;SDS011;54981;50.206;15.978;2023-06-10T07:19:21;29.48;;;26.80;;
68168;SDS011;54981;50.206;15.978;2023-06-10T07:21:52;29.80;;;27.23;;
68168;SDS011;54981;50.206;15.978;2023-06-10T07:24:22;27.38;;;25.00;;
68168;SDS011;54981;50.206;15.978;2023-06-10T07:26:52;29.40;;;27.00;;
68168;SDS011;54981;50.206;15.978;2023-06-10T07:29:23;32.60;;;29.90;;
68168;SDS011;54981;50.206;15.978;2023-06-10T07:31:53;30.80;;;28.15;;
68168;SDS011;54981;50.206;15.978;2023-06-10T07:34:24;29.95;;;27.50;;
68168;SDS011;54981;50.206;15.978;2023-06-10T07:36:54;32.22;;;29.40;;
68168;SDS011;54981;50.206;15.978;2023-06-10T07:39:25;34.42;;;31.52;;
68168;SDS011;54981;50.206;15.978;2023-06-10T07:41:55;34.15;;;31.08;;
68168;SDS011;54981;50.206;15.978;2023-06-10T07:44:27;30.92;;;27.98;;
68168;SDS011;54981;50.206;15.978;2023-06-10T07:46:57;32.47;;;29.67;;
68168;SDS011;54981;50.206;15.978;2023-06-10T07:49:28;28.90;;;26.20;;
68168;SDS011;54981;50.206;15.978;2023-06-10T07:51:58;31.40;;;28.65;;
68168;SDS011;54981;50.206;15.978;2023-06-10T07:54:29;33.72;;;30.52;;
68168;SDS011;54981;50.206;15.978;2023-06-10T07:56:59;30.60;;;27.83;;
68168;SDS011;54981;50.206;15.978;2023-06-10T07:59:30;29.67;;;27.15;;
68168;SDS011;54981;50.206;15.978;2023-06-10T08:02:00;30.35;;;27.58;;
68168;SDS011;54981;50.206;15.978;2023-06-10T08:04:31;32.35;;;29.27;;
68168;SDS011;54981;50.206;15.978;2023-06-10T08:07:05;28.63;;;26.00;;
68168;SDS011;54981;50.206;15.978;2023-06-10T08:09:35;31.42;;;28.75;;
68168;SDS011;54981;50.206;15.978;2023-06-10T08:12:06;28.67;;;26.25;;
68168;SDS011;54981;50.206;15.978;2023-06-10T08:14:37;29.63;;;27.05;;
68168;SDS011;54981;50.206;15.978;2023-06-10T08:17:08;27.30;;;24.75;;
68168;SDS011;54981;50.206;15.978;2023-06-10T08:19:38;26.40;;;24.10;;
68168;SDS011;54981;50.206;15.978;2023-06-10T08:22:09;28.48;;;25.80;;
68168;SDS011;54981;50.206;15.978;2023-06-10T08:24:40;27.85;;;25.35;;
68168;SDS011;54981;50.206;15.978;2023-06-10T08:27:10;29.65;;;27.13;;
68168;SDS011;54981;50.206;15.978;2023-06-10T08:29:40;28.70;;;26.25;;
68168;SDS011;54981;50.206;15.978;2023-06-10T08:32:11;27.83;;;25.30;;
68168;SDS011;54981;50.206;15.978;2023-06-10T08:34:41;26.67;;;24.27;;
68168;SDS011;54981;50.206;15.978;2023-06-10T08:37:12;27.80;;;25.30;;
68168;SDS011;54981;50.206;15.978;2023-06-10T08:39:42;29.27;;;26.73;;
68168;SDS011;54981;50.206;15.978;2023-06-10T08:44:58;27.35;;;25.02;;
68168;SDS011;54981;50.206;15.978;2023-06-10T08:50:06;27.80;;;25.27;;
68168;SDS011;54981;50.206;15.978;2023-06-10T08:52:40;25.48;;;23.25;;
68168;SDS011;54981;50.206;15.978;2023-06-10T08:55:32;27.42;;;24.90;;
68168;SDS011;54981;50.206;15.978;2023-06-10T08:58:03;28.73;;;26.13;;
68168;SDS011;54981;50.206;15.978;2023-06-10T09:00:34;29.52;;;26.63;;
68168;SDS011;54981;50.206;15.978;2023-06-10T09:03:05;28.20;;;25.50;;
68168;SDS011;54981;50.206;15.978;2023-06-10T09:05:38;29.55;;;26.77;;
68168;SDS011;54981;50.206;15.978;2023-06-10T09:08:09;27.90;;;25.42;;
68168;SDS011;54981;50.206;15.978;2023-06-10T09:10:40;29.05;;;26.48;;
68168;SDS011;54981;50.206;15.978;2023-06-10T09:13:10;28.52;;;25.80;;
68168;SDS011;54981;50.206;15.978;2023-06-10T09:15:41;30.38;;;27.60;;
68168;SDS011;54981;50.206;15.978;2023-06-10T09:18:11;28.75;;;26.33;;
68168;SDS011;54981;50.206;15.978;2023-06-10T09:20:43;27.45;;;24.95;;
68168;SDS011;54981;50.206;15.978;2023-06-10T09:23:13;28.48;;;25.70;;
68168;SDS011;54981;50.206;15.978;2023-06-10T09:25:45;30.88;;;27.23;;
68168;SDS011;54981;50.206;15.978;2023-06-10T09:28:15;29.75;;;26.95;;
68168;SDS011;54981;50.206;15.978;2023-06-10T09:30:46;29.25;;;26.65;;
68168;SDS011;54981;50.206;15.978;2023-06-10T09:33:16;27.42;;;24.88;;
68168;SDS011;54981;50.206;15.978;2023-06-10T09:35:47;26.35;;;23.85;;
68168;SDS011;54981;50.206;15.978;2023-06-10T09:38:20;23.65;;;21.45;;
68168;SDS011;54981;50.206;15.978;2023-06-10T09:40:52;24.02;;;21.55;;
68168;SDS011;54981;50.206;15.978;2023-06-10T09:43:24;24.90;;;22.33;;
68168;SDS011;54981;50.206;15.978;2023-06-10T09:46:18;22.48;;;20.45;;
68168;SDS011;54981;50.206;15.978;2023-06-10T09:48:50;21.27;;;19.33;;
68168;SDS011;54981;50.206;15.978;2023-06-10T09:51:20;21.40;;;19.48;;
68168;SDS011;54981;50.206;15.978;2023-06-10T09:53:52;20.92;;;18.83;;
68168;SDS011;54981;50.206;15.978;2023-06-10T09:56:32;20.63;;;18.60;;
68168;SDS011;54981;50.206;15.978;2023-06-10T09:59:04;22.38;;;20.45;;
68168;SDS011;54981;50.206;15.978;2023-06-10T10:01:36;22.75;;;20.80;;
68168;SDS011;54981;50.206;15.978;2023-06-10T10:04:06;20.60;;;18.73;;
68168;SDS011;54981;50.206;15.978;2023-06-10T10:06:37;18.17;;;16.35;;
68168;SDS011;54981;50.206;15.978;2023-06-10T10:09:09;18.20;;;16.40;;
68168;SDS011;54981;50.206;15.978;2023-06-10T10:11:39;18.20;;;16.40;;
68168;SDS011;54981;50.206;15.978;2023-06-10T10:14:13;17.95;;;16.25;;
68168;SDS011;54981;50.206;15.978;2023-06-10T10:16:47;18.05;;;16.13;;
68168;SDS011;54981;50.206;15.978;2023-06-10T10:22:03;17.35;;;15.15;;
68168;SDS011;54981;50.206;15.978;2023-06-10T10:24:44;15.82;;;14.20;;
68168;SDS011;54981;50.206;15.978;2023-06-10T10:27:28;15.30;;;13.90;;
68168;SDS011;54981;50.206;15.978;2023-06-10T10:30:03;15.27;;;13.75;;
68168;SDS011;54981;50.206;15.978;2023-06-10T10:32:40;14.05;;;12.75;;
68168;SDS011;54981;50.206;15.978;2023-06-10T10:35:16;15.48;;;13.90;;
68168;SDS011;54981;50.206;15.978;2023-06-10T10:37:52;13.85;;;12.45;;
68168;SDS011;54981;50.206;15.978;2023-06-10T10:40:24;14.98;;;13.50;;
68168;SDS011;54981;50.206;15.978;2023-06-10T10:42:56;13.65;;;12.35;;
68168;SDS011;54981;50.206;15.978;2023-06-10T10:45:29;15.27;;;13.87;;
68168;SDS011;54981;50.206;15.978;2023-06-10T10:47:59;13.63;;;12.43;;
68168;SDS011;54981;50.206;15.978;2023-06-10T10:50:40;13.40;;;12.00;;
68168;SDS011;54981;50.206;15.978;2023-06-10T10:53:10;13.68;;;12.38;;
68168;SDS011;54981;50.206;15.978;2023-06-10T10:55:41;13.63;;;12.27;;
68168;SDS011;54981;50.206;15.978;2023-06-10T10:58:11;13.40;;;12.10;;
68168;SDS011;54981;50.206;15.978;2023-06-10T11:00:43;12.00;;;10.90;;
68168;SDS011;54981;50.206;15.978;2023-06-10T11:03:15;11.18;;;9.93;;
68168;SDS011;54981;50.206;15.978;2023-06-10T11:05:48;11.38;;;9.80;;
68168;SDS011;54981;50.206;15.978;2023-06-10T11:10:58;10.73;;;9.55;;
68168;SDS011;54981;50.206;15.978;2023-06-10T11:13:28;10.50;;;9.48;;
68168;SDS011;54981;50.206;15.978;2023-06-10T11:15:59;13.15;;;10.07;;
68168;SDS011;54981;50.206;15.978;2023-06-10T11:18:38;12.70;;;10.43;;
68168;SDS011;54981;50.206;15.978;2023-06-10T11:21:09;11.70;;;10.50;;
68168;SDS011;54981;50.206;15.978;2023-06-10T11:23:40;11.85;;;10.38;;
68168;SDS011;54981;50.206;15.978;2023-06-10T11:31:23;10.35;;;8.75;;
68168;SDS011;54981;50.206;15.978;2023-06-10T11:33:55;10.25;;;8.45;;
68168;SDS011;54981;50.206;15.978;2023-06-10T11:36:27;10.00;;;8.52;;
68168;SDS011;54981;50.206;15.978;2023-06-10T11:39:03;10.95;;;9.32;;
68168;SDS011;54981;50.206;15.978;2023-06-10T11:41:35;9.48;;;8.50;;
68168;SDS011;54981;50.206;15.978;2023-06-10T11:44:11;10.05;;;8.82;;
68168;SDS011;54981;50.206;15.978;2023-06-10T11:46:48;10.82;;;9.43;;
68168;SDS011;54981;50.206;15.978;2023-06-10T11:49:20;9.90;;;8.90;;
68168;SDS011;54981;50.206;15.978;2023-06-10T11:51:57;10.48;;;9.38;;
68168;SDS011;54981;50.206;15.978;2023-06-10T11:54:27;10.70;;;9.60;;
68168;SDS011;54981;50.206;15.978;2023-06-10T11:56:58;10.50;;;9.02;;
68168;SDS011;54981;50.206;15.978;2023-06-10T11:59:30;11.63;;;10.43;;
68168;SDS011;54981;50.206;15.978;2023-06-10T12:02:01;10.35;;;9.27;;
68168;SDS011;54981;50.206;15.978;2023-06-10T12:04:32;12.95;;;9.63;;
68168;SDS011;54981;50.206;15.978;2023-06-10T12:07:07;10.63;;;9.18;;
68168;SDS011;54981;50.206;15.978;2023-06-10T12:09:37;12.02;;;10.57;;
68168;SDS011;54981;50.206;15.978;2023-06-10T12:12:08;11.40;;;9.35;;
68168;SDS011;54981;50.206;15.978;2023-06-10T12:20:00;12.45;;;9.32;;
68168;SDS011;54981;50.206;15.978;2023-06-10T12:22:42;10.90;;;9.45;;
68168;SDS011;54981;50.206;15.978;2023-06-10T12:25:14;11.18;;;9.60;;
68168;SDS011;54981;50.206;15.978;2023-06-10T12:27:51;10.68;;;9.27;;
68168;SDS011;54981;50.206;15.978;2023-06-10T12:30:25;10.32;;;8.77;;
68168;SDS011;54981;50.206;15.978;2023-06-10T12:32:57;9.60;;;8.38;;
68168;SDS011;54981;50.206;15.978;2023-06-10T12:35:27;9.38;;;8.55;;
68168;SDS011;54981;50.206;15.978;2023-06-10T12:37:59;9.52;;;8.05;;
68168;SDS011;54981;50.206;15.978;2023-06-10T12:40:38;11.15;;;8.52;;
68168;SDS011;54981;50.206;15.978;2023-06-10T12:43:13;10.27;;;8.13;;
68168;SDS011;54981;50.206;15.978;2023-06-10T12:45:49;8.73;;;7.82;;
68168;SDS011;54981;50.206;15.978;2023-06-10T12:48:23;10.30;;;9.20;;
68168;SDS011;54981;50.206;15.978;2023-06-10T12:50:55;10.85;;;8.52;;
68168;SDS011;54981;50.206;15.978;2023-06-10T12:53:26;9.77;;;8.77;;
68168;SDS011;54981;50.206;15.978;2023-06-10T12:55:57;11.80;;;8.23;;
68168;SDS011;54981;50.206;15.978;2023-06-10T12:58:28;9.93;;;8.95;;
68168;SDS011;54981;50.206;15.978;2023-06-10T13:00:59;11.90;;;8.13;;
68168;SDS011;54981;50.206;15.978;2023-06-10T13:03:29;12.30;;;8.65;;
68168;SDS011;54981;50.206;15.978;2023-06-10T13:05:59;9.32;;;8.43;;
68168;SDS011;54981;50.206;15.978;2023-06-10T13:08:30;11.40;;;10.20;;
68168;SDS011;54981;50.206;15.978;2023-06-10T13:11:00;16.65;;;11.80;;
68168;SDS011;54981;50.206;15.978;2023-06-10T13:13:31;13.32;;;12.00;;
68168;SDS011;54981;50.206;15.978;2023-06-10T13:16:01;13.23;;;11.15;;
68168;SDS011;54981;50.206;15.978;2023-06-10T13:18:32;11.75;;;10.65;;
68168;SDS011;54981;50.206;15.978;2023-06-10T13:21:07;10.85;;;9.80;;
68168;SDS011;54981;50.206;15.978;2023-06-10T13:23:37;9.77;;;8.77;;
68168;SDS011;54981;50.206;15.978;2023-06-10T13:26:08;10.27;;;9.18;;
68168;SDS011;54981;50.206;15.978;2023-06-10T13:28:39;10.98;;;9.77;;
68168;SDS011;54981;50.206;15.978;2023-06-10T13:31:14;11.88;;;9.90;;
68168;SDS011;54981;50.206;15.978;2023-06-10T13:33:45;10.75;;;9.55;;
68168;SDS011;54981;50.206;15.978;2023-06-10T13:36:17;14.35;;;10.43;;
68168;SDS011;54981;50.206;15.978;2023-06-10T13:38:47;10.93;;;9.82;;
68168;SDS011;54981;50.206;15.978;2023-06-10T13:41:18;11.75;;;9.23;;
68168;SDS011;54981;50.206;15.978;2023-06-10T13:43:49;13.48;;;9.40;;
68168;SDS011;54981;50.206;15.978;2023-06-10T13:46:19;9.45;;;8.45;;
68168;SDS011;54981;50.206;15.978;2023-06-10T13:48:51;9.90;;;8.95;;
68168;SDS011;54981;50.206;15.978;2023-06-10T13:51:22;12.35;;;8.50;;
68168;SDS011;54981;50.206;15.978;2023-06-10T13:53:52;9.27;;;8.15;;
68168;SDS011;54981;50.206;15.978;2023-06-10T13:56:22;8.77;;;7.57;;
68168;SDS011;54981;50.206;15.978;2023-06-10T13:58:53;8.88;;;7.53;;
68168;SDS011;54981;50.206;15.978;2023-06-10T14:01:23;10.13;;;8.50;;
68168;SDS011;54981;50.206;15.978;2023-06-10T14:03:54;12.25;;;7.85;;
68168;SDS011;54981;50.206;15.978;2023-06-10T14:06:24;10.38;;;8.90;;
68168;SDS011;54981;50.206;15.978;2023-06-10T14:08:55;11.77;;;8.98;;
68168;SDS011;54981;50.206;15.978;2023-06-10T14:11:26;10.35;;;9.02;;
68168;SDS011;54981;50.206;15.978;2023-06-10T14:13:56;9.60;;;8.57;;
68168;SDS011;54981;50.206;15.978;2023-06-10T14:16:27;11.85;;;9.30;;
68168;SDS011;54981;50.206;15.978;2023-06-10T14:18:58;10.82;;;9.80;;
68168;SDS011;54981;50.206;15.978;2023-06-10T14:21:28;11.05;;;9.95;;
68168;SDS011;54981;50.206;15.978;2023-06-10T14:23:58;12.95;;;9.95;;
68168;SDS011;54981;50.206;15.978;2023-06-10T14:26:29;12.20;;;10.10;;
68168;SDS011;54981;50.206;15.978;2023-06-10T14:28:59;10.48;;;9.30;;
68168;SDS011;54981;50.206;15.978;2023-06-10T14:31:30;12.77;;;8.82;;
68168;SDS011;54981;50.206;15.978;2023-06-10T14:34:00;9.85;;;8.95;;
68168;SDS011;54981;50.206;15.978;2023-06-10T14:36:30;10.50;;;9.35;;
68168;SDS011;54981;50.206;15.978;2023-06-10T14:39:01;10.23;;;9.07;;
68168;SDS011;54981;50.206;15.978;2023-06-10T14:41:31;10.00;;;9.00;;
68168;SDS011;54981;50.206;15.978;2023-06-10T14:44:02;10.80;;;9.70;;
68168;SDS011;54981;50.206;15.978;2023-06-10T14:46:32;10.02;;;9.02;;
68168;SDS011;54981;50.206;15.978;2023-06-10T14:49:03;12.45;;;9.38;;
68168;SDS011;54981;50.206;15.978;2023-06-10T14:51:33;10.73;;;9.63;;
68168;SDS011;54981;50.206;15.978;2023-06-10T14:54:04;10.02;;;8.98;;
68168;SDS011;54981;50.206;15.978;2023-06-10T14:56:34;10.27;;;9.20;;
68168;SDS011;54981;50.206;15.978;2023-06-10T14:59:05;10.15;;;9.02;;
68168;SDS011;54981;50.206;15.978;2023-06-10T15:01:35;11.05;;;9.63;;
68168;SDS011;54981;50.206;15.978;2023-06-10T15:04:06;9.23;;;8.35;;